Time;durP1;ratioP1;P1;durP2;ratioP2;P2;SDS_P1;SDS_P2;PMS_P1;PMS_P2;Temp;Humidity;BMP_temperature;BMP_pressure;BME280_temperature;BME280_humidity;BME280_pressure;Samples;Min_cycle;Max_cycle;Signal;HPM_P1;HPM_P2
2021/03/09 00:01:32;;;;;;;7.95;5.05;;;0.20;99.90;;;;;;4996944;28;20079;-79
2021/03/09 00:03:57;;;;;;;6.97;4.93;;;0.00;99.90;;;;;;5010901;28;20533;-78
2021/03/09 00:06:23;;;;;;;6.93;4.80;;;0.10;99.90;;;;;;5001860;28;20603;-79
2021/03/09 00:08:49;;;;;;;7.63;5.07;;;0.00;99.90;;;;;;5011366;28;20085;-78
2021/03/09 00:11:15;;;;;;;8.05;5.03;;;0.00;99.90;;;;;;4994760;28;20066;-78
2021/03/09 00:13:40;;;;;;;6.68;4.43;;;-0.10;99.90;;;;;;4995949;28;20079;-77
2021/03/09 00:16:06;;;;;;;8.93;5.28;;;-0.10;99.90;;;;;;4996333;28;20650;-78
2021/03/09 00:18:32;;;;;;;9.32;5.85;;;-0.10;99.90;;;;;;4998303;28;20488;-78
2021/03/09 00:20:57;;;;;;;7.43;5.05;;;-0.10;99.90;;;;;;5001357;28;20181;-77
2021/03/09 00:23:23;;;;;;;8.15;4.82;;;-0.20;99.90;;;;;;5003463;28;20501;-78
2021/03/09 00:25:49;;;;;;;10.23;5.43;;;-0.40;99.90;;;;;;5000122;28;20097;-78
2021/03/09 00:28:22;;;;;;;10.68;5.63;;;-0.40;99.90;;;;;;4999226;28;20070;-78
2021/03/09 00:30:48;;;;;;;9.57;6.00;;;-0.10;99.90;;;;;;4998681;28;20174;-77
2021/03/09 00:33:14;;;;;;;8.75;5.60;;;0.10;99.90;;;;;;5008375;28;20643;-78
2021/03/09 00:35:39;;;;;;;7.97;5.00;;;-0.10;99.90;;;;;;5015726;28;20098;-77
2021/03/09 00:38:05;;;;;;;6.95;4.72;;;-0.20;99.90;;;;;;5011781;28;20095;-78
2021/03/09 00:40:31;;;;;;;8.05;5.00;;;-0.60;99.90;;;;;;5008266;28;20177;-78
2021/03/09 00:42:56;;;;;;;8.00;5.47;;;-0.60;99.90;;;;;;4998741;28;20098;-78
2021/03/09 00:45:22;;;;;;;9.20;5.20;;;-0.50;99.90;;;;;;5008573;28;20503;-78
2021/03/09 00:47:48;;;;;;;9.60;5.32;;;-0.40;99.90;;;;;;5018518;28;20101;-78
2021/03/09 00:50:14;;;;;;;7.07;4.82;;;-0.30;99.90;;;;;;5011818;28;20114;-78
2021/03/09 00:52:40;;;;;;;8.55;5.50;;;-0.20;99.90;;;;;;5004846;28;20106;-78
2021/03/09 00:55:06;;;;;;;8.73;5.55;;;-0.10;99.90;;;;;;5002394;28;20074;-78
2021/03/09 00:57:32;;;;;;;7.70;5.60;;;0.00;99.90;;;;;;5005585;28;20189;-78
2021/03/09 00:59:58;;;;;;;7.53;4.93;;;-0.10;99.90;;;;;;5008461;28;20152;-78
2021/03/09 01:02:24;;;;;;;9.30;5.80;;;-0.20;99.90;;;;;;4993791;28;20078;-78
2021/03/09 01:04:49;;;;;;;8.23;5.25;;;-0.40;99.90;;;;;;5009581;28;20157;-78
2021/03/09 01:07:15;;;;;;;9.85;5.53;;;-0.40;99.90;;;;;;5016006;28;20095;-78
2021/03/09 01:09:41;;;;;;;6.63;4.53;;;-0.40;99.90;;;;;;5000952;28;20106;-78
2021/03/09 01:12:07;;;;;;;9.52;5.18;;;-0.60;99.90;;;;;;5027093;28;20074;-78
2021/03/09 01:14:32;;;;;;;10.27;5.45;;;-0.40;99.90;;;;;;5012335;28;20157;-77
2021/03/09 01:16:58;;;;;;;9.20;5.80;;;-0.50;99.90;;;;;;5001318;28;20244;-78
2021/03/09 01:19:24;;;;;;;8.55;5.68;;;-0.70;99.90;;;;;;5011768;28;20109;-78
2021/03/09 01:21:49;;;;;;;11.02;5.43;;;-0.50;99.90;;;;;;5004431;28;20124;-78
2021/03/09 01:24:15;;;;;;;9.95;5.72;;;-0.40;99.90;;;;;;5006873;28;20074;-78
2021/03/09 01:26:41;;;;;;;11.50;5.00;;;-0.40;99.90;;;;;;4999652;28;20082;-77
2021/03/09 01:29:06;;;;;;;11.52;5.78;;;-0.60;99.90;;;;;;5012965;28;20078;-77
2021/03/09 01:31:32;;;;;;;10.35;5.85;;;-0.50;99.90;;;;;;5010250;28;20532;-77
2021/03/09 01:33:58;;;;;;;8.18;5.50;;;-0.50;99.90;;;;;;5012760;28;20101;-77
2021/03/09 01:36:23;;;;;;;10.10;6.07;;;-0.40;99.90;;;;;;5009308;28;20113;-78
2021/03/09 01:38:49;;;;;;;8.95;6.47;;;-0.40;99.90;;;;;;5006079;28;20081;-78
2021/03/09 01:41:15;;;;;;;9.98;5.65;;;-0.40;99.90;;;;;;5018303;28;20117;-77
2021/03/09 01:43:41;;;;;;;9.60;6.00;;;-0.50;99.90;;;;;;5006060;28;20121;-79
2021/03/09 01:46:07;;;;;;;10.30;5.38;;;-0.60;99.90;;;;;;5017121;28;20113;-79
2021/03/09 01:48:40;;;;;;;9.90;6.22;;;-0.50;99.90;;;;;;5016945;28;20551;-79
2021/03/09 01:51:06;;;;;;;10.80;5.82;;;-0.60;99.90;;;;;;5016612;28;20073;-79
2021/03/09 01:53:32;;;;;;;9.13;5.60;;;-1.00;99.90;;;;;;4998588;28;20079;-79
2021/03/09 01:55:58;;;;;;;10.32;5.57;;;-0.90;99.90;;;;;;4998387;28;20099;-79
2021/03/09 01:58:26;;;;;;;7.60;4.38;;;-1.00;99.90;;;;;;5004445;28;20082;-79
2021/03/09 02:00:51;;;;;;;9.07;5.85;;;-0.90;99.90;;;;;;5022967;28;20090;-79
2021/03/09 02:03:17;;;;;;;10.65;5.65;;;-0.90;99.90;;;;;;5011789;28;20082;-77
2021/03/09 02:05:44;;;;;;;8.47;6.00;;;-0.90;99.90;;;;;;5008976;28;20093;-77
2021/03/09 02:08:10;;;;;;;10.00;6.40;;;-0.80;99.90;;;;;;5014780;28;20117;-78
2021/03/09 02:10:36;;;;;;;10.18;5.95;;;-0.80;99.90;;;;;;4996804;28;20114;-78
2021/03/09 02:13:10;;;;;;;10.40;5.90;;;-1.00;99.90;;;;;;5005373;28;20116;-78
2021/03/09 02:15:38;;;;;;;;;;;-1.10;99.90;;;;;;5024563;28;20076;-79
2021/03/09 02:18:27;;;;;;;10.05;5.95;;;-1.10;99.90;;;;;;5003274;28;19957;-78
2021/03/09 02:21:30;;;;;;;9.02;5.88;;;-1.00;99.90;;;;;;4986058;28;20118;-77
2021/03/09 02:24:15;;;;;;;9.70;5.78;;;-1.10;99.90;;;;;;4999103;28;20078;-78
2021/03/09 02:26:44;;;;;;;9.82;6.38;;;-1.00;99.90;;;;;;5007162;28;20185;-78
2021/03/09 02:29:39;;;;;;;9.88;5.50;;;-1.20;99.90;;;;;;5011911;28;20086;-78
2021/03/09 02:32:06;;;;;;;8.77;5.53;;;-1.10;99.90;;;;;;5015570;28;20073;-78
2021/03/09 02:34:44;;;;;;;12.27;6.22;;;-1.00;99.90;;;;;;5010856;28;20096;-77
2021/03/09 02:37:13;;;;;;;12.63;6.38;;;-1.00;99.90;;;;;;5014907;28;20101;-78
2021/03/09 02:39:45;;;;;;;9.63;5.90;;;-1.00;99.90;;;;;;5016833;28;20117;-78
2021/03/09 02:42:16;;;;;;;9.18;5.53;;;-1.00;99.90;;;;;;4996764;28;20452;-78
2021/03/09 02:44:44;;;;;;;9.90;5.80;;;-0.90;99.90;;;;;;5015506;28;20479;-79
2021/03/09 02:47:13;;;;;;;10.35;6.03;;;-0.90;99.90;;;;;;5011631;28;20113;-80
2021/03/09 02:49:41;;;;;;;12.98;6.00;;;-1.00;99.90;;;;;;5010312;28;20090;-79
2021/03/09 02:52:08;;;;;;;8.43;5.72;;;-1.00;99.90;;;;;;5000401;28;20082;-80
2021/03/09 02:54:38;;;;;;;10.90;6.55;;;-1.10;99.90;;;;;;5008891;28;20086;-79
2021/03/09 02:57:06;;;;;;;9.75;6.38;;;-1.20;99.90;;;;;;5008690;28;20102;-80
2021/03/09 02:59:34;;;;;;;9.88;6.30;;;-1.20;99.90;;;;;;5005461;28;20096;-79
2021/03/09 03:02:00;;;;;;;9.73;5.70;;;-1.30;99.90;;;;;;5011785;28;20099;-80
2021/03/09 03:04:26;;;;;;;11.40;6.38;;;-1.20;99.90;;;;;;5004611;28;20777;-80
2021/03/09 03:06:53;;;;;;;13.27;5.68;;;-1.20;99.90;;;;;;5003385;28;20092;-79
2021/03/09 03:09:20;;;;;;;10.13;6.70;;;-1.00;99.90;;;;;;5007427;28;20164;-80
2021/03/09 03:11:49;;;;;;;11.05;6.03;;;-1.00;99.90;;;;;;5003886;28;20086;-80
2021/03/09 03:14:16;;;;;;;9.30;5.65;;;-1.10;99.90;;;;;;5012672;28;20070;-80
2021/03/09 03:16:43;;;;;;;11.38;6.25;;;-1.40;99.90;;;;;;5009489;28;20087;-80
2021/03/09 03:19:10;;;;;;;9.70;6.63;;;-1.30;99.90;;;;;;5009496;28;20083;-80
2021/03/09 03:21:40;;;;;;;11.93;6.55;;;-1.20;99.90;;;;;;5023128;28;20072;-80
2021/03/09 03:24:08;;;;;;;9.77;5.82;;;-1.10;99.90;;;;;;5006654;28;20070;-79
2021/03/09 03:26:41;;;;;;;11.93;7.80;;;-1.10;99.90;;;;;;5030325;28;20082;-81
2021/03/09 03:29:09;;;;;;;10.15;6.38;;;-1.10;99.90;;;;;;5010261;28;20082;-79
2021/03/09 03:31:35;;;;;;;10.02;5.68;;;-1.20;99.90;;;;;;5005150;28;20154;-80
2021/03/09 03:34:05;;;;;;;10.50;6.20;;;-1.30;99.90;;;;;;5027506;28;20525;-81
2021/03/09 03:36:33;;;;;;;11.73;6.88;;;-1.60;99.90;;;;;;5010458;28;20086;-80
2021/03/09 03:38:59;;;;;;;11.45;6.57;;;-1.50;99.90;;;;;;5021251;28;20194;-79
2021/03/09 03:41:25;;;;;;;11.82;6.65;;;-1.40;99.90;;;;;;4996897;28;20533;-79
2021/03/09 03:43:50;;;;;;;11.10;7.18;;;-1.20;99.90;;;;;;5002639;28;20078;-80
2021/03/09 03:46:16;;;;;;;11.17;6.73;;;-1.00;99.90;;;;;;5014083;28;20090;-81
2021/03/09 03:48:42;;;;;;;12.57;7.10;;;-1.20;99.90;;;;;;4998225;28;20078;-80
2021/03/09 03:51:13;;;;;;;10.83;6.63;;;-1.20;99.90;;;;;;5002821;28;20086;-79
2021/03/09 03:54:10;;;;;;;11.15;6.95;;;-1.30;99.90;;;;;;5012629;28;20579;-80
2021/03/09 03:56:44;;;;;;;16.35;8.15;;;-1.30;99.90;;;;;;5008640;28;20110;-79
2021/03/09 03:59:29;;;;;;;11.70;7.43;;;-1.20;99.90;;;;;;4993520;28;20113;-79
2021/03/09 04:01:55;;;;;;;13.75;8.20;;;-1.10;99.90;;;;;;5008862;28;20078;-80
2021/03/09 04:04:25;;;;;;;14.70;7.20;;;-1.20;99.90;;;;;;5011048;28;20165;-79
2021/03/09 04:06:54;;;;;;;17.23;8.60;;;-1.50;99.90;;;;;;4996725;28;20584;-80
2021/03/09 04:09:21;;;;;;;18.67;8.98;;;-1.40;99.90;;;;;;4997090;28;20093;-79
2021/03/09 04:11:47;;;;;;;17.38;9.23;;;-1.40;99.90;;;;;;5012201;28;20451;-79
2021/03/09 04:14:14;;;;;;;14.98;9.23;;;-1.60;99.90;;;;;;5011699;28;20176;-80
2021/03/09 04:16:47;;;;;;;13.65;8.27;;;-1.60;99.90;;;;;;4998473;28;22051;-80
2021/03/09 04:19:14;;;;;;;18.73;9.38;;;-1.60;99.90;;;;;;5004293;28;20095;-80
2021/03/09 04:21:42;;;;;;;13.77;9.05;;;-1.80;99.90;;;;;;5014954;28;20074;-80
2021/03/09 04:24:12;;;;;;;15.03;8.80;;;-1.70;99.90;;;;;;5003799;28;20097;-79
2021/03/09 04:26:39;;;;;;;15.03;9.37;;;-2.00;99.90;;;;;;5013089;28;20157;-79
2021/03/09 04:29:07;;;;;;;18.33;7.68;;;-2.20;99.90;;;;;;5010383;28;20121;-79
2021/03/09 04:31:33;;;;;;;14.15;8.25;;;-2.00;99.90;;;;;;4995222;28;20081;-79
2021/03/09 04:33:58;;;;;;;12.68;7.15;;;-2.10;99.90;;;;;;4994696;28;20078;-79
2021/03/09 04:36:25;;;;;;;16.20;9.80;;;-2.00;99.90;;;;;;5009733;28;20117;-79
2021/03/09 04:38:52;;;;;;;17.60;9.20;;;-2.20;99.90;;;;;;5021822;28;20096;-79
2021/03/09 04:41:18;;;;;;;20.27;10.43;;;-2.70;99.90;;;;;;5010419;28;20177;-79
2021/03/09 04:43:44;;;;;;;19.30;11.07;;;-2.40;99.90;;;;;;5011674;28;20814;-78
2021/03/09 04:46:10;;;;;;;23.90;12.47;;;-2.10;99.90;;;;;;5021612;28;20090;-78
2021/03/09 04:48:39;;;;;;;27.90;14.05;;;-1.80;99.90;;;;;;5011264;28;20165;-78
2021/03/09 04:51:07;;;;;;;22.67;10.67;;;-2.30;99.90;;;;;;4993200;28;20165;-78
2021/03/09 04:53:34;;;;;;;29.73;13.97;;;-2.10;99.90;;;;;;5007950;28;20090;-79
2021/03/09 04:56:00;;;;;;;18.95;10.32;;;-2.10;99.90;;;;;;5002466;28;20117;-78
2021/03/09 04:58:26;;;;;;;20.83;11.17;;;-2.10;99.90;;;;;;5003494;28;20082;-78
2021/03/09 05:00:55;;;;;;;27.43;11.77;;;-1.90;99.90;;;;;;4994779;28;20105;-78
2021/03/09 05:03:23;;;;;;;23.80;12.13;;;-2.40;99.90;;;;;;4995475;28;20089;-78
2021/03/09 05:05:49;;;;;;;29.97;13.73;;;-2.20;99.90;;;;;;5011677;28;20155;-77
2021/03/09 05:08:14;;;;;;;30.97;13.90;;;-2.20;99.90;;;;;;5009269;28;20163;-78
2021/03/09 05:10:40;;;;;;;33.47;15.90;;;-1.90;99.90;;;;;;4998643;28;20224;-78
2021/03/09 05:13:06;;;;;;;31.00;15.05;;;-1.60;99.90;;;;;;5010095;28;20082;-77
2021/03/09 05:15:32;;;;;;;30.70;14.37;;;-1.40;99.90;;;;;;5011206;28;20109;-78
2021/03/09 05:17:58;;;;;;;27.67;13.50;;;-1.90;99.90;;;;;;5000168;28;20082;-78
2021/03/09 05:20:24;;;;;;;23.33;12.32;;;-1.70;99.90;;;;;;5010167;28;20094;-79
2021/03/09 05:22:50;;;;;;;28.23;12.98;;;-1.80;99.90;;;;;;5010489;28;20078;-79
2021/03/09 05:25:16;;;;;;;27.47;12.80;;;-2.50;99.90;;;;;;4997029;28;20076;-81
2021/03/09 05:27:44;;;;;;;27.43;13.87;;;-2.10;99.90;;;;;;5004605;28;20185;-80
2021/03/09 05:30:11;;;;;;;22.60;11.98;;;-1.80;99.90;;;;;;5011193;28;20070;-81
2021/03/09 05:32:37;;;;;;;30.00;12.57;;;-1.80;99.90;;;;;;5000045;28;20082;-80
2021/03/09 05:35:05;;;;;;;26.67;12.93;;;-1.80;99.90;;;;;;5008098;28;20495;-82
2021/03/09 05:37:31;;;;;;;28.43;12.97;;;-1.50;99.90;;;;;;5022151;28;20141;-78
2021/03/09 05:39:57;;;;;;;29.52;14.13;;;-1.50;99.90;;;;;;4993588;28;20093;-79
2021/03/09 05:42:22;;;;;;;28.73;14.60;;;-1.60;99.90;;;;;;5010551;28;20081;-78
2021/03/09 05:44:49;;;;;;;30.52;14.10;;;-1.60;99.90;;;;;;5009684;28;20078;-78
2021/03/09 05:47:15;;;;;;;26.97;15.43;;;-1.40;99.90;;;;;;5010699;28;20086;-78
2021/03/09 05:49:41;;;;;;;31.52;13.98;;;-1.40;99.90;;;;;;5019261;28;20155;-79
2021/03/09 05:52:09;;;;;;;28.67;14.95;;;-1.50;99.90;;;;;;5008179;28;20511;-78
2021/03/09 05:54:34;;;;;;;31.88;14.55;;;-1.70;99.90;;;;;;5009418;28;20097;-79
2021/03/09 05:57:00;;;;;;;29.48;13.77;;;-1.60;99.90;;;;;;5011593;28;20240;-78
2021/03/09 05:59:27;;;;;;;25.20;12.50;;;-1.60;99.90;;;;;;5008069;28;20472;-78
2021/03/09 06:01:53;;;;;;;28.80;13.80;;;-1.70;99.90;;;;;;5008899;28;20707;-78
2021/03/09 06:04:19;;;;;;;30.57;14.57;;;-1.70;99.90;;;;;;5009798;28;20117;-78
2021/03/09 06:06:45;;;;;;;27.10;13.88;;;-1.50;99.90;;;;;;5010347;28;20117;-77
2021/03/09 06:09:32;;;;;;;25.57;12.93;;;-1.60;99.90;;;;;;5010800;28;20079;-79
2021/03/09 06:12:18;;;;;;;29.83;15.30;;;-1.40;99.90;;;;;;5010248;28;20074;-79
2021/03/09 06:15:00;;;;;;;28.60;14.00;;;-1.20;99.90;;;;;;5015721;28;20078;-78
2021/03/09 06:17:28;;;;;;;33.47;14.63;;;-1.00;99.90;;;;;;5017793;28;20094;-79
2021/03/09 06:19:54;;;;;;;28.17;15.32;;;-1.10;99.90;;;;;;5005352;28;20100;-78
2021/03/09 06:22:21;;;;;;;33.88;14.88;;;-1.30;99.90;;;;;;4995293;28;20082;-78
2021/03/09 06:24:47;;;;;;;36.47;17.00;;;-1.40;99.90;;;;;;4996133;28;20479;-78
2021/03/09 06:27:25;;;;;;;35.28;16.90;;;-1.20;99.90;;;;;;5001026;28;20180;-78
2021/03/09 06:29:51;;;;;;;33.63;15.30;;;-1.30;99.90;;;;;;4996826;28;20081;-79
2021/03/09 06:32:16;;;;;;;34.95;15.95;;;-1.20;99.90;;;;;;5005573;28;20537;-80
2021/03/09 06:34:42;;;;;;;28.60;14.87;;;-1.30;99.90;;;;;;4998445;28;20078;-80
2021/03/09 06:37:18;;;;;;;31.15;14.85;;;-1.20;99.90;;;;;;5001991;28;20151;-81
2021/03/09 06:40:03;;;;;;;30.10;15.50;;;-1.10;99.90;;;;;;5006156;28;20120;-79
2021/03/09 06:42:39;;;;;;;31.98;15.90;;;-1.20;99.90;;;;;;5005577;28;20078;-78
2021/03/09 06:45:09;;;;;;;22.27;12.00;;;-1.20;99.90;;;;;;5004793;28;20073;-80
2021/03/09 06:47:40;;;;;;;29.38;13.23;;;-1.20;99.90;;;;;;5011101;28;20090;-80
2021/03/09 06:50:11;;;;;;;25.33;12.52;;;-0.90;99.90;;;;;;5018542;28;20125;-80
2021/03/09 06:52:38;;;;;;;20.02;12.60;;;-1.20;99.90;;;;;;5008307;28;20082;-80
2021/03/09 06:55:05;;;;;;;26.23;13.75;;;-1.00;99.90;;;;;;5014069;28;20070;-80
2021/03/09 06:57:31;;;;;;;26.38;12.98;;;-0.70;99.90;;;;;;5001038;28;20504;-79
2021/03/09 06:59:57;;;;;;;22.25;11.82;;;-0.90;99.90;;;;;;5003837;28;20241;-80
2021/03/09 07:02:29;;;;;;;24.42;12.93;;;-0.80;99.90;;;;;;5007329;28;20073;-78
2021/03/09 07:05:12;;;;;;;23.60;12.45;;;-0.90;99.90;;;;;;4996186;28;20648;-79
2021/03/09 07:07:42;;;;;;;22.38;12.07;;;-0.80;99.90;;;;;;5011136;28;20093;-80
2021/03/09 07:10:16;;;;;;;22.60;12.27;;;-0.80;99.90;;;;;;5013930;28;20082;-78
2021/03/09 07:12:47;;;;;;;23.95;12.85;;;-0.60;99.90;;;;;;5003527;28;20093;-79
2021/03/09 07:15:27;;;;;;;25.35;12.90;;;-0.50;99.90;;;;;;5004306;28;20576;-80
2021/03/09 07:17:53;;;;;;;22.30;12.52;;;-0.50;99.90;;;;;;5010915;28;20070;-79
2021/03/09 07:20:19;;;;;;;27.05;13.00;;;-0.20;99.90;;;;;;5010105;28;20241;-79
2021/03/09 07:22:46;;;;;;;26.17;14.38;;;-0.30;99.90;;;;;;5001486;28;20082;-77
2021/03/09 07:25:14;;;;;;;24.90;12.80;;;-0.20;99.90;;;;;;5005944;28;20157;-78
2021/03/09 07:27:57;;;;;;;23.52;12.13;;;-0.20;99.90;;;;;;5001517;28;20632;-78
2021/03/09 07:30:26;;;;;;;20.70;13.18;;;0.00;99.90;;;;;;5017589;28;20169;-79
2021/03/09 07:32:54;;;;;;;26.48;14.60;;;0.00;99.90;;;;;;5015705;28;20082;-79
2021/03/09 07:35:21;;;;;;;25.58;13.60;;;0.00;99.90;;;;;;5007222;28;20312;-78
2021/03/09 07:37:49;;;;;;;24.48;13.45;;;0.10;99.90;;;;;;4995827;28;20228;-79
2021/03/09 07:40:20;;;;;;;23.05;13.02;;;0.10;99.90;;;;;;5008980;28;20090;-79
2021/03/09 07:42:46;;;;;;;26.77;12.77;;;0.20;99.90;;;;;;4996848;28;20552;-79
2021/03/09 07:45:17;;;;;;;22.90;11.32;;;0.20;99.90;;;;;;4997509;28;20079;-79
2021/03/09 07:47:49;;;;;;;25.75;12.80;;;0.30;99.90;;;;;;5012939;28;20098;-79
2021/03/09 07:50:15;;;;;;;24.67;12.68;;;0.40;99.90;;;;;;5005403;28;20551;-78
2021/03/09 07:53:06;;;;;;;18.45;10.70;;;0.40;99.90;;;;;;5005793;28;20548;-79
2021/03/09 07:55:32;;;;;;;19.48;11.57;;;0.50;99.90;;;;;;4989694;28;20098;-79
2021/03/09 07:58:17;;;;;;;21.65;12.23;;;0.60;99.90;;;;;;5007068;28;20096;-78
2021/03/09 08:00:49;;;;;;;19.23;10.15;;;0.60;99.90;;;;;;5009882;28;20612;-79
2021/03/09 08:03:22;;;;;;;19.38;11.13;;;0.70;99.90;;;;;;4995650;28;20078;-78
2021/03/09 08:05:59;;;;;;;18.73;10.30;;;0.80;99.90;;;;;;4998186;28;20467;-78
2021/03/09 08:08:38;;;;;;;22.40;10.68;;;0.90;99.90;;;;;;5000210;28;20069;-78
2021/03/09 08:11:06;;;;;;;19.23;11.07;;;1.00;99.90;;;;;;4998508;28;20084;-78
2021/03/09 08:13:32;;;;;;;19.95;12.07;;;1.10;99.90;;;;;;5022956;28;20157;-78
2021/03/09 08:16:24;;;;;;;21.65;11.20;;;1.30;99.90;;;;;;5009381;28;20206;-78
2021/03/09 08:18:53;;;;;;;16.67;10.07;;;1.60;99.90;;;;;;5006837;28;20097;-78
2021/03/09 08:21:19;;;;;;;19.15;10.13;;;1.70;99.90;;;;;;5019410;28;20442;-78
2021/03/09 08:23:45;;;;;;;17.15;10.32;;;1.80;99.90;;;;;;5011591;28;20563;-78
2021/03/09 08:26:14;;;;;;;18.20;10.93;;;1.80;99.90;;;;;;4998538;28;20094;-78
2021/03/09 08:28:41;;;;;;;19.95;11.43;;;2.00;99.90;;;;;;4996347;28;20083;-78
2021/03/09 08:31:09;;;;;;;20.90;11.60;;;2.00;99.90;;;;;;4995854;28;20174;-78
2021/03/09 08:33:41;;;;;;;19.48;10.68;;;2.20;99.90;;;;;;5007415;28;20110;-78
2021/03/09 08:39:12;;;;;;;20.17;11.50;;;2.10;99.90;;;;;;5014896;28;20098;-77
2021/03/09 08:41:38;;;;;;;23.38;13.55;;;1.90;99.90;;;;;;4996371;28;20229;-78
2021/03/09 08:44:22;;;;;;;21.10;11.50;;;1.90;99.90;;;;;;5008402;28;20174;-77
2021/03/09 08:47:07;;;;;;;18.85;11.75;;;2.10;99.90;;;;;;5000688;28;20117;-77
2021/03/09 08:49:36;;;;;;;20.92;12.60;;;2.40;99.90;;;;;;5000526;28;20093;-77
2021/03/09 08:52:03;;;;;;;20.55;11.77;;;2.20;99.90;;;;;;5003699;28;20143;-78
2021/03/09 08:54:40;;;;;;;21.48;12.30;;;2.10;99.90;;;;;;5018112;28;20227;-78
2021/03/09 08:57:09;;;;;;;21.77;12.95;;;2.20;99.90;;;;;;5001798;28;20688;-77
2021/03/09 08:59:36;;;;;;;20.52;11.77;;;2.40;99.90;;;;;;5025186;28;20094;-78
2021/03/09 09:02:06;;;;;;;21.98;14.18;;;2.60;99.90;;;;;;5011639;28;20078;-78
2021/03/09 09:04:32;;;;;;;23.58;13.48;;;2.80;99.90;;;;;;5008975;28;20074;-76
2021/03/09 09:06:58;;;;;;;29.05;13.52;;;2.90;99.90;;;;;;4992316;28;20090;-77
2021/03/09 09:09:32;;;;;;;23.80;14.00;;;2.80;99.90;;;;;;4997551;28;20076;-78
2021/03/09 09:11:58;;;;;;;22.45;13.20;;;2.80;99.90;;;;;;4993462;28;20073;-76
2021/03/09 09:14:23;;;;;;;21.13;12.48;;;2.70;99.90;;;;;;4998065;28;20517;-77
2021/03/09 09:16:53;;;;;;;24.63;12.68;;;3.00;99.90;;;;;;5008935;28;20205;-78
2021/03/09 09:19:18;;;;;;;27.30;13.38;;;3.20;99.90;;;;;;5002553;28;20081;-77
2021/03/09 09:21:46;;;;;;;21.75;13.52;;;2.90;99.90;;;;;;5022523;28;20070;-77
2021/03/09 09:24:19;;;;;;;24.23;13.23;;;2.90;99.90;;;;;;5001286;28;20082;-77
2021/03/09 09:26:45;;;;;;;23.25;14.20;;;3.00;99.90;;;;;;4995025;28;20093;-78
2021/03/09 09:29:11;;;;;;;23.33;13.65;;;3.00;99.90;;;;;;5003254;28;20066;-78
2021/03/09 09:31:37;;;;;;;24.88;13.75;;;3.00;99.90;;;;;;4992128;28;20081;-77
2021/03/09 09:34:05;;;;;;;22.38;12.82;;;3.10;99.90;;;;;;4991982;28;20122;-77
2021/03/09 09:36:31;;;;;;;22.20;13.75;;;3.00;99.90;;;;;;5006110;28;20097;-77
2021/03/09 09:38:57;;;;;;;21.70;13.02;;;3.20;99.90;;;;;;5009610;28;20524;-78
2021/03/09 09:41:24;;;;;;;23.05;13.23;;;3.20;99.90;;;;;;4992773;28;20098;-78
2021/03/09 09:43:50;;;;;;;25.80;13.27;;;3.50;99.90;;;;;;4992433;28;20078;-78
2021/03/09 09:46:23;;;;;;;20.08;12.70;;;3.40;99.90;;;;;;5003694;28;20644;-77
2021/03/09 09:48:52;;;;;;;20.40;12.50;;;3.40;99.90;;;;;;4992463;28;20089;-78
2021/03/09 09:51:23;;;;;;;21.58;12.55;;;3.30;99.90;;;;;;5001705;28;20124;-78
2021/03/09 09:53:50;;;;;;;22.13;12.70;;;3.40;99.90;;;;;;4993067;28;20139;-77
2021/03/09 09:56:19;;;;;;;19.45;11.88;;;3.40;99.90;;;;;;4996212;28;20094;-78
2021/03/09 09:58:52;;;;;;;16.48;10.18;;;3.50;99.90;;;;;;4997480;28;20925;-77
2021/03/09 10:01:40;;;;;;;17.95;11.18;;;3.50;99.90;;;;;;5011148;28;20098;-77
2021/03/09 10:04:08;;;;;;;20.17;12.85;;;3.50;99.90;;;;;;4997406;28;20077;-78
2021/03/09 10:06:42;;;;;;;22.88;13.85;;;3.70;99.90;;;;;;5015581;28;20155;-78
2021/03/09 10:09:13;;;;;;;18.73;11.03;;;3.80;99.90;;;;;;5014078;28;20085;-77
2021/03/09 10:11:50;;;;;;;18.33;11.00;;;3.70;99.90;;;;;;5021827;28;20086;-77
2021/03/09 10:14:18;;;;;;;17.90;10.35;;;3.80;99.90;;;;;;5013490;28;20874;-78
2021/03/09 10:16:44;;;;;;;14.85;9.13;;;3.70;99.90;;;;;;5003890;28;20094;-77
2021/03/09 10:19:15;;;;;;;15.25;9.18;;;3.70;99.90;;;;;;5012696;28;20212;-79
2021/03/09 10:21:42;;;;;;;14.98;8.50;;;3.70;99.90;;;;;;5007915;28;20087;-78
2021/03/09 10:24:08;;;;;;;14.48;8.07;;;3.70;99.90;;;;;;4996359;28;20436;-78
2021/03/09 10:26:39;;;;;;;17.02;10.73;;;3.70;99.90;;;;;;5014222;28;20090;-78
2021/03/09 10:29:12;;;;;;;13.20;7.82;;;3.70;99.90;;;;;;5010025;28;20078;-78
2021/03/09 10:31:45;;;;;;;15.88;8.75;;;3.70;99.10;;;;;;5000078;28;20070;-78
2021/03/09 10:34:12;;;;;;;16.42;9.10;;;3.70;99.10;;;;;;4998220;28;20082;-77
2021/03/09 10:37:02;;;;;;;16.35;8.70;;;3.70;99.70;;;;;;5024834;28;20093;-78
2021/03/09 10:39:30;;;;;;;16.95;9.63;;;3.60;99.90;;;;;;5026848;28;20105;-78
2021/03/09 10:41:56;;;;;;;14.90;8.38;;;3.70;99.90;;;;;;5015089;28;20070;-79
2021/03/09 10:44:37;;;;;;;15.90;10.25;;;3.70;99.90;;;;;;5024965;28;20074;-78
2021/03/09 10:47:05;;;;;;;11.85;7.78;;;3.80;99.90;;;;;;5003425;28;20094;-78
2021/03/09 10:49:32;;;;;;;11.82;7.65;;;3.80;99.60;;;;;;5013071;28;20113;-78
2021/03/09 10:52:16;;;;;;;13.07;7.57;;;3.90;97.30;;;;;;5007973;28;20077;-78
2021/03/09 10:54:41;;;;;;;11.27;7.00;;;3.90;99.00;;;;;;5011030;28;20078;-78
2021/03/09 10:57:09;;;;;;;10.18;6.75;;;3.90;97.70;;;;;;5008614;28;20186;-77
2021/03/09 10:59:36;;;;;;;9.20;5.80;;;3.90;96.70;;;;;;4999486;28;20125;-78
2021/03/09 11:02:05;;;;;;;8.63;5.22;;;3.90;95.70;;;;;;5008997;28;20240;-77
2021/03/09 11:04:30;;;;;;;7.95;4.85;;;4.10;92.70;;;;;;5006477;28;20066;-78
2021/03/09 11:06:56;;;;;;;7.53;5.50;;;4.10;91.50;;;;;;5022554;28;20093;-77
2021/03/09 11:09:23;;;;;;;9.75;6.40;;;4.10;93.50;;;;;;5006840;28;20078;-78
2021/03/09 11:11:50;;;;;;;10.88;6.95;;;4.10;94.70;;;;;;5016938;28;20078;-77
2021/03/09 11:14:15;;;;;;;12.82;7.80;;;4.10;95.10;;;;;;5014211;28;20074;-77
2021/03/09 11:16:41;;;;;;;13.80;7.57;;;4.10;96.20;;;;;;5010354;28;20098;-76
2021/03/09 11:19:07;;;;;;;12.98;7.45;;;4.20;96.80;;;;;;5013627;28;20082;-77
2021/03/09 11:21:32;;;;;;;13.95;7.45;;;4.20;95.80;;;;;;5009639;28;20087;-76
2021/03/09 11:23:58;;;;;;;11.27;7.70;;;4.30;96.10;;;;;;5006231;28;20113;-77
2021/03/09 11:26:25;;;;;;;12.73;7.28;;;4.30;95.10;;;;;;5007292;28;20095;-76
2021/03/09 11:28:53;;;;;;;11.52;6.43;;;4.30;93.50;;;;;;4995346;28;20158;-77
2021/03/09 11:31:21;;;;;;;11.82;7.60;;;4.40;92.20;;;;;;4998596;28;20070;-77
2021/03/09 11:33:47;;;;;;;12.70;6.50;;;4.60;95.10;;;;;;5008903;28;20078;-76
2021/03/09 11:36:13;;;;;;;13.98;8.43;;;4.60;93.50;;;;;;4996666;28;20136;-76
2021/03/09 11:38:40;;;;;;;11.48;7.72;;;4.70;93.00;;;;;;5000233;28;20495;-76
2021/03/09 11:41:06;;;;;;;11.10;7.30;;;4.70;91.40;;;;;;5021304;28;20090;-76
2021/03/09 11:43:32;;;;;;;12.27;7.38;;;4.70;90.90;;;;;;5013472;28;20070;-76
2021/03/09 11:45:57;;;;;;;13.25;7.53;;;4.70;91.30;;;;;;5003685;28;20122;-77
2021/03/09 11:48:24;;;;;;;11.30;7.30;;;4.90;90.70;;;;;;5004344;28;20538;-77
2021/03/09 11:50:49;;;;;;;14.82;8.90;;;4.90;91.10;;;;;;5010233;28;20776;-76
2021/03/09 11:53:15;;;;;;;11.80;7.15;;;4.90;91.10;;;;;;4996934;28;20141;-76
2021/03/09 11:55:41;;;;;;;11.07;6.68;;;5.10;89.70;;;;;;4994122;28;20117;-77
2021/03/09 11:58:07;;;;;;;9.15;5.40;;;4.90;86.10;;;;;;4998889;28;20082;-76
2021/03/09 12:00:32;;;;;;;10.50;6.53;;;4.90;85.00;;;;;;4995808;28;20094;-77
2021/03/09 12:02:58;;;;;;;9.73;6.22;;;5.00;83.20;;;;;;5009014;28;20471;-77
2021/03/09 12:05:24;;;;;;;11.57;5.68;;;5.00;82.40;;;;;;5003725;28;20089;-77
2021/03/09 12:07:50;;;;;;;8.18;5.95;;;5.10;78.90;;;;;;5001357;28;20448;-77
2021/03/09 12:10:16;;;;;;;8.13;5.03;;;5.00;77.70;;;;;;4997417;28;20078;-77
2021/03/09 12:12:42;;;;;;;9.10;4.82;;;4.90;77.00;;;;;;5006647;28;20088;-78
2021/03/09 12:15:08;;;;;;;8.25;5.25;;;4.80;78.80;;;;;;5009618;28;20085;-79
2021/03/09 12:17:34;;;;;;;13.50;6.70;;;5.00;77.20;;;;;;5011506;28;20120;-77
2021/03/09 12:19:59;;;;;;;10.00;5.38;;;5.00;76.50;;;;;;4997871;28;20560;-78
2021/03/09 12:22:25;;;;;;;7.68;4.95;;;4.90;78.40;;;;;;5001634;28;20067;-82
2021/03/09 12:24:50;;;;;;;8.02;5.80;;;4.90;78.00;;;;;;5011324;28;20171;-83
2021/03/09 12:27:16;;;;;;;8.50;5.50;;;5.00;77.80;;;;;;5005192;28;20109;-82
2021/03/09 12:29:42;;;;;;;11.55;6.03;;;5.10;77.80;;;;;;5011290;28;20157;-82
2021/03/09 12:32:08;;;;;;;8.68;5.03;;;5.20;77.20;;;;;;5007810;28;20125;-82
2021/03/09 12:34:34;;;;;;;9.15;4.95;;;5.40;74.70;;;;;;5011923;28;20082;-82
2021/03/09 12:36:59;;;;;;;7.10;4.75;;;5.30;72.30;;;;;;5000329;28;20102;-81
2021/03/09 12:39:25;;;;;;;7.30;5.22;;;5.20;74.90;;;;;;5011538;28;20089;-82
2021/03/09 12:41:51;;;;;;;6.03;4.32;;;5.30;72.30;;;;;;5012023;28;20109;-81
2021/03/09 12:44:16;;;;;;;8.63;4.78;;;5.30;73.10;;;;;;5002695;28;20075;-82
2021/03/09 12:46:42;;;;;;;9.30;5.43;;;5.20;74.10;;;;;;5004159;28;20093;-81
2021/03/09 12:49:08;;;;;;;7.00;4.63;;;5.40;72.40;;;;;;5013009;28;20066;-82
2021/03/09 12:51:33;;;;;;;9.90;5.50;;;5.40;73.10;;;;;;5007358;28;20078;-84